Time;durP1;ratioP1;P1;durP2;ratioP2;P2;SDS_P1;SDS_P2;PMS_P1;PMS_P2;Temp;Humidity;BMP_temperature;BMP_pressure;BME280_temperature;BME280_humidity;BME280_pressure;Samples;Min_cycle;Max_cycle;Signal;HPM_P1;HPM_P2
2023/12/15 00:02:00;;;;;;;12.38;9.05;;;;;;;30.14;56.97;101071.38;4969547;28;70344;-37
2023/12/15 00:04:31;;;;;;;17.67;10.02;;;;;;;30.14;59.31;101071.38;4974175;28;65911;-37
2023/12/15 00:07:01;;;;;;;10.63;9.63;;;;;;;30.21;57.70;101072.22;4973528;28;70444;-38
2023/12/15 00:09:31;;;;;;;21.83;10.25;;;;;;;30.24;59.14;101082.66;4972242;28;65765;-37
2023/12/15 00:12:01;;;;;;;18.33;10.00;;;;;;;30.20;58.92;101075.97;4966601;28;70420;-37
2023/12/15 00:14:32;;;;;;;32.80;11.45;;;;;;;30.11;65.07;101077.22;4939757;28;65992;-37
2023/12/15 00:17:03;;;;;;;27.33;11.20;;;;;;;30.16;61.24;101096.38;4970114;28;69405;-38
2023/12/15 00:19:33;;;;;;;18.92;10.93;;;;;;;30.22;64.04;101105.56;4958005;28;67528;-37
2023/12/15 00:22:03;;;;;;;26.35;10.23;;;;;;;30.23;62.19;101102.66;4947514;28;69487;-37
2023/12/15 00:24:33;;;;;;;27.67;12.40;;;;;;;30.23;62.78;101115.34;4967388;28;66208;-38
2023/12/15 00:27:03;;;;;;;17.83;10.93;;;;;;;30.09;63.24;101098.28;4968388;28;70571;-38
2023/12/15 00:29:33;;;;;;;26.35;12.10;;;;;;;30.06;63.73;101106.78;4979441;28;66503;-38
2023/12/15 00:32:03;;;;;;;30.42;13.35;;;;;;;30.04;66.17;101103.47;4969205;28;70183;-38
2023/12/15 00:34:34;;;;;;;26.00;12.55;;;;;;;30.15;62.77;101121.78;4976629;28;66621;-38
2023/12/15 00:37:04;;;;;;;18.70;13.02;;;;;;;30.19;62.53;101117.59;4960049;28;70421;-38
2023/12/15 00:39:37;;;;;;;22.27;12.40;;;;;;;30.06;64.20;101095.97;4974820;28;65664;-38
2023/12/15 00:42:07;;;;;;;25.42;12.07;;;;;;;30.25;62.66;101124.91;4981827;28;70573;-37
2023/12/15 00:44:37;;;;;;;28.65;12.48;;;;;;;30.31;62.74;101127.81;4952079;28;65927;-38
2023/12/15 00:47:07;;;;;;;18.65;11.60;;;;;;;30.35;62.91;101131.78;4980179;28;69504;-37
2023/12/15 00:49:38;;;;;;;21.90;11.13;;;;;;;30.40;63.98;101140.94;4968491;28;66651;-37
2023/12/15 00:52:07;;;;;;;15.40;9.77;;;;;;;30.10;61.79;101075.56;4957790;28;69835;-39
2023/12/15 00:54:37;;;;;;;15.50;9.48;;;;;;;30.55;60.26;101132.56;4985157;28;66500;-37
2023/12/15 00:57:07;;;;;;;11.20;9.98;;;;;;;30.60;60.40;101149.00;4957947;28;69917;-37
2023/12/15 00:59:37;;;;;;;13.07;9.05;;;;;;;30.53;59.99;101126.50;4967303;28;65667;-37
2023/12/15 01:02:08;;;;;;;17.98;9.73;;;;;;;30.59;59.47;101131.09;4968986;28;70237;-37
2023/12/15 01:04:39;;;;;;;15.75;9.35;;;;;;;30.71;59.84;101153.75;4964280;28;65876;-38
2023/12/15 01:07:09;;;;;;;13.38;9.23;;;;;;;30.68;59.48;101137.94;4966768;28;69480;-38
2023/12/15 01:09:39;;;;;;;11.88;8.75;;;;;;;30.79;59.57;101149.16;4977891;28;66498;-37
2023/12/15 01:12:09;;;;;;;16.50;8.93;;;;;;;30.77;59.77;101151.25;4966784;28;70238;-40
2023/12/15 01:14:39;;;;;;;10.55;8.82;;;;;;;30.85;59.56;101160.00;4970884;28;65697;-38
2023/12/15 01:17:09;;;;;;;16.92;9.02;;;;;;;30.88;59.26;101158.75;4967335;28;70070;-38
2023/12/15 01:19:39;;;;;;;11.32;8.60;;;;;;;30.91;59.04;101169.16;4941685;28;66170;-45
2023/12/15 01:22:09;;;;;;;11.38;8.95;;;;;;;30.82;59.45;101144.19;4944809;28;70419;-38
2023/12/15 01:24:39;;;;;;;11.20;8.52;;;;;;;30.96;59.55;101163.09;4962327;28;66023;-38
2023/12/15 01:27:09;;;;;;;11.95;8.88;;;;;;;30.97;59.27;101162.03;4972293;28;69444;-38
2023/12/15 01:29:39;;;;;;;10.35;8.73;;;;;;;31.01;59.06;101163.25;4965472;28;66159;-38
2023/12/15 01:32:09;;;;;;;10.95;8.40;;;;;;;31.02;59.04;101165.75;4959418;28;68940;-38
2023/12/15 01:34:39;;;;;;;10.75;9.65;;;;;;;31.04;59.03;101169.09;4979660;28;65898;-38
2023/12/15 01:37:09;;;;;;;13.70;9.35;;;;;;;31.01;59.01;101158.69;4933003;28;69890;-38
2023/12/15 01:39:39;;;;;;;10.40;9.30;;;;;;;31.04;59.25;101152.84;4975902;28;66032;-38
2023/12/15 01:42:09;;;;;;;10.93;9.40;;;;;;;31.06;59.30;101164.28;4961169;28;70616;-38
2023/12/15 01:44:40;;;;;;;9.32;8.40;;;;;;;31.07;58.87;101147.00;4967424;28;66637;-38
2023/12/15 01:47:18;;;;;;;12.17;9.47;;;;;;;31.12;58.82;101159.88;4958995;28;69662;-38
2023/12/15 01:49:52;;;;;;;10.02;9.10;;;;;;;31.15;59.35;101160.31;4960791;28;66321;-38
2023/12/15 01:52:22;;;;;;;9.18;8.27;;;;;;;31.13;58.84;101154.25;4969613;28;71530;-38
2023/12/15 01:54:52;;;;;;;9.82;8.88;;;;;;;31.10;58.98;101146.56;4947388;28;67084;-38
2023/12/15 01:57:22;;;;;;;11.13;8.73;;;;;;;31.23;59.27;101155.66;4960454;28;69937;-38
2023/12/15 01:59:53;;;;;;;9.82;8.82;;;;;;;31.22;59.17;101148.59;4955130;28;66546;-38
2023/12/15 02:02:22;;;;;;;9.63;8.30;;;;;;;31.23;58.95;101158.38;4933777;28;69585;-39
2023/12/15 02:04:53;;;;;;;13.38;8.88;;;;;;;31.28;58.69;101158.56;4963788;28;66571;-38
2023/12/15 02:07:23;;;;;;;13.50;7.90;;;;;;;31.30;58.74;101161.88;4963934;28;70135;-39
2023/12/15 02:09:54;;;;;;;9.55;8.57;;;;;;;31.31;59.32;101155.41;4960113;28;66042;-38
2023/12/15 02:12:23;;;;;;;9.98;9.07;;;;;;;31.32;58.83;101148.97;4959904;28;70739;-37
2023/12/15 02:14:53;;;;;;;9.57;8.80;;;;;;;31.31;58.45;101147.28;4954343;28;66294;-38
2023/12/15 02:17:23;;;;;;;9.55;8.77;;;;;;;31.38;58.57;101156.25;4972667;28;70764;-38
2023/12/15 02:19:53;;;;;;;9.75;8.75;;;;;;;31.35;58.67;101143.94;4968694;28;66248;-38
2023/12/15 02:22:27;;;;;;;10.02;9.13;;;;;;;31.39;58.85;101149.78;4965876;28;70450;-38
2023/12/15 02:24:57;;;;;;;10.88;9.77;;;;;;;31.41;58.46;101144.97;4962218;28;66888;-38
2023/12/15 02:27:27;;;;;;;11.00;9.88;;;;;;;31.47;58.79;101149.50;4942749;28;70234;-38
2023/12/15 02:29:57;;;;;;;9.65;8.88;;;;;;;31.50;58.58;101146.38;4974611;28;66317;-38
2023/12/15 02:32:27;;;;;;;13.10;8.63;;;;;;;31.52;58.54;101148.88;4952096;28;69725;-38
2023/12/15 02:34:58;;;;;;;9.32;8.60;;;;;;;31.54;58.54;101146.78;4969250;28;65146;-38
2023/12/15 02:37:28;;;;;;;10.00;9.02;;;;;;;31.57;58.90;101147.16;4965770;28;69686;-38
2023/12/15 02:39:58;;;;;;;12.90;9.48;;;;;;;31.59;58.85;101149.63;4980778;28;66189;-38
2023/12/15 02:42:28;;;;;;;11.82;9.50;;;;;;;31.60;58.64;101146.72;4947269;28;69839;-38
2023/12/15 02:45:01;;;;;;;9.18;8.48;;;;;;;31.45;58.42;101113.66;4966062;28;66592;-38
2023/12/15 02:47:31;;;;;;;10.05;9.13;;;;;;;31.56;58.51;101123.78;4971276;28;70660;-38
2023/12/15 02:50:02;;;;;;;10.38;9.45;;;;;;;31.55;58.71;101127.56;4948399;28;66880;-38
2023/12/15 02:52:32;;;;;;;9.68;8.88;;;;;;;31.69;58.50;101138.31;4966004;28;69182;-38
2023/12/15 02:55:02;;;;;;;11.32;10.27;;;;;;;31.70;58.60;101134.56;4966477;28;66751;-38
2023/12/15 02:57:33;;;;;;;10.02;9.18;;;;;;;31.77;58.78;101129.91;4967712;28;70290;-38
2023/12/15 03:00:04;;;;;;;;;;;;;;;31.42;59.79;101141.19;4969381;28;65940;-38
2023/12/15 03:02:33;;;;;;;9.43;8.52;;;;;;;31.74;58.82;101125.75;4967679;28;70286;-38
2023/12/15 03:05:05;;;;;;;9.50;8.75;;;;;;;31.80;58.77;101129.47;4965780;28;66851;-38
2023/12/15 03:07:35;;;;;;;9.93;9.03;;;;;;;31.47;58.51;101076.31;4956998;28;70383;-38
2023/12/15 03:10:06;;;;;;;9.70;8.88;;;;;;;31.87;58.27;101124.81;4969435;28;66122;-38
2023/12/15 03:12:36;;;;;;;9.98;9.05;;;;;;;31.89;58.43;101122.72;4970592;28;70242;-38
2023/12/15 03:15:07;;;;;;;10.15;9.25;;;;;;;31.92;58.45;101114.16;4968256;28;65939;-38
2023/12/15 03:17:37;;;;;;;11.13;9.30;;;;;;;31.95;58.28;101115.59;4965375;28;69720;-38
2023/12/15 03:20:08;;;;;;;9.52;8.73;;;;;;;31.97;58.13;101125.19;4975215;28;65785;-38
2023/12/15 03:22:39;;;;;;;9.55;8.95;;;;;;;32.00;58.53;101113.06;4972533;28;70345;-39
2023/12/15 03:25:09;;;;;;;13.20;9.07;;;;;;;32.00;57.97;101116.59;4967512;28;66229;-38
2023/12/15 03:27:39;;;;;;;9.75;9.05;;;;;;;32.05;58.13;101121.38;4968557;28;70451;-39
2023/12/15 03:30:10;;;;;;;10.73;9.85;;;;;;;32.01;57.98;101104.72;4946782;28;66832;-38
2023/12/15 03:32:40;;;;;;;9.38;8.68;;;;;;;32.09;58.15;101100.84;4968420;28;69947;-38
2023/12/15 03:35:10;;;;;;;9.70;8.90;;;;;;;32.11;58.11;101103.34;4965251;28;65837;-38
2023/12/15 03:37:40;;;;;;;10.25;9.07;;;;;;;32.13;57.99;101106.69;4963187;28;70405;-38
2023/12/15 03:40:11;;;;;;;9.25;8.55;;;;;;;32.17;57.92;101099.75;4937578;28;66133;-38
2023/12/15 03:42:41;;;;;;;9.90;9.00;;;;;;;32.19;58.08;101094.94;4950801;28;69642;-38
2023/12/15 03:45:11;;;;;;;10.02;9.02;;;;;;;32.20;58.23;101094.69;4945302;28;65462;-38
2023/12/15 03:47:41;;;;;;;9.57;8.80;;;;;;;32.23;58.14;101096.13;4948487;28;70361;-37
2023/12/15 03:50:12;;;;;;;9.07;8.48;;;;;;;32.24;57.92;101103.25;4984463;28;66588;-38
2023/12/15 03:52:43;;;;;;;11.55;10.20;;;;;;;32.27;57.99;101097.34;4961675;28;70202;-38
2023/12/15 03:55:12;;;;;;;9.38;8.63;;;;;;;32.29;58.12;101084.41;4964258;28;65487;-38
2023/12/15 03:57:43;;;;;;;9.60;8.82;;;;;;;32.26;57.70;101079.38;4953122;28;70235;-39
2023/12/15 04:00:13;;;;;;;10.13;9.10;;;;;;;32.32;57.97;101086.66;4969254;28;65539;-38
2023/12/15 04:02:44;;;;;;;9.57;8.77;;;;;;;32.32;57.83;101081.22;4964904;28;69296;-38
2023/12/15 04:05:15;;;;;;;9.95;9.10;;;;;;;32.36;57.89;101079.72;4974386;28;65913;-39
2023/12/15 04:07:46;;;;;;;9.65;8.68;;;;;;;32.38;57.92;101074.88;4964997;28;70118;-38
2023/12/15 04:10:16;;;;;;;9.80;8.85;;;;;;;32.35;57.81;101060.94;4944483;28;66277;-38
2023/12/15 04:12:46;;;;;;;9.52;8.68;;;;;;;32.42;57.88;101065.22;4960317;28;70841;-38
2023/12/15 04:15:18;;;;;;;9.48;8.55;;;;;;;32.44;57.77;101071.25;4967026;28;66448;-39
2023/12/15 04:17:48;;;;;;;10.65;9.68;;;;;;;32.44;57.83;101059.56;4957449;28;69204;-38
2023/12/15 04:20:19;;;;;;;9.82;8.95;;;;;;;32.46;57.63;101055.63;4960830;28;66772;-38
2023/12/15 04:22:49;;;;;;;9.73;8.95;;;;;;;32.48;57.83;101058.09;4968541;28;70793;-45
2023/12/15 04:25:19;;;;;;;9.43;8.68;;;;;;;32.39;57.73;101030.38;4961665;28;66143;-40
2023/12/15 04:27:49;;;;;;;9.73;8.70;;;;;;;32.51;57.79;101040.50;4947272;28;70545;-39
2023/12/15 04:30:19;;;;;;;9.98;9.05;;;;;;;32.52;57.72;101043.00;4973499;28;66742;-39
2023/12/15 04:32:49;;;;;;;9.55;8.73;;;;;;;32.55;57.75;101039.00;4961378;28;71241;-38
2023/12/15 04:35:19;;;;;;;9.00;8.23;;;;;;;32.56;57.88;101030.63;4966801;28;66491;-38
2023/12/15 04:37:50;;;;;;;8.88;8.23;;;;;;;32.58;57.74;101038.56;4958283;28;70842;-38
2023/12/15 04:40:20;;;;;;;9.43;8.52;;;;;;;32.58;57.44;101028.50;4973083;28;66836;-38
2023/12/15 04:42:50;;;;;;;9.00;8.25;;;;;;;32.61;57.59;101017.19;4966583;28;69923;-38
2023/12/15 04:45:20;;;;;;;10.05;9.07;;;;;;;32.60;57.46;101009.28;4968815;28;65557;-38
2023/12/15 04:47:54;;;;;;;9.57;8.77;;;;;;;32.54;57.54;100997.47;4959905;28;71349;-39
2023/12/15 04:50:24;;;;;;;10.63;8.77;;;;;;;32.54;57.40;100989.31;4952844;28;67100;-39
2023/12/15 04:52:55;;;;;;;9.55;8.68;;;;;;;32.65;57.61;100999.41;4949882;28;70019;-39
2023/12/15 04:55:25;;;;;;;8.88;8.25;;;;;;;32.66;57.50;100997.50;4944536;28;65700;-39
2023/12/15 04:57:55;;;;;;;9.27;8.40;;;;;;;32.71;57.41;101003.09;4950587;28;70162;-39
2023/12/15 05:00:25;;;;;;;11.88;8.45;;;;;;;32.71;57.46;100990.31;4966282;28;66181;-38
2023/12/15 05:02:55;;;;;;;8.95;8.15;;;;;;;32.75;57.24;100992.56;4960397;28;70615;-38
2023/12/15 05:05:25;;;;;;;8.82;8.23;;;;;;;32.77;57.27;100977.69;4964997;28;65743;-39
2023/12/15 05:07:56;;;;;;;9.20;8.40;;;;;;;32.77;57.26;100988.56;4974110;28;70178;-38
2023/12/15 05:10:26;;;;;;;9.25;8.55;;;;;;;32.81;57.07;100980.78;4972873;28;65931;-39
2023/12/15 05:12:56;;;;;;;9.68;8.95;;;;;;;32.76;57.08;100973.31;4989258;28;70268;-39
2023/12/15 05:15:26;;;;;;;9.05;8.45;;;;;;;32.83;57.38;100970.50;4983822;28;66578;-38
2023/12/15 05:17:56;;;;;;;8.25;7.55;;;;;;;32.86;57.04;100962.72;4989304;28;68713;-38
2023/12/15 05:20:26;;;;;;;9.60;8.43;;;;;;;32.86;57.28;100957.28;4988683;28;65707;-38
2023/12/15 05:22:56;;;;;;;9.45;8.65;;;;;;;32.89;57.20;100954.09;4981126;28;70305;-38
2023/12/15 05:25:26;;;;;;;9.60;8.70;;;;;;;32.85;57.14;100944.78;4986865;28;65612;-38
2023/12/15 05:27:56;;;;;;;9.98;9.07;;;;;;;32.88;56.92;100936.16;4969166;28;68942;-38
2023/12/15 05:30:26;;;;;;;9.90;9.02;;;;;;;32.90;56.94;100934.03;4983355;28;66718;-38
2023/12/15 05:32:56;;;;;;;8.52;7.93;;;;;;;32.91;57.08;100935.69;4973913;28;69947;-38
2023/12/15 05:35:26;;;;;;;9.43;8.60;;;;;;;32.98;57.00;100932.03;4983054;28;66625;-38
2023/12/15 05:37:56;;;;;;;8.77;7.82;;;;;;;32.91;56.57;100913.13;4989547;28;70647;-38
2023/12/15 05:40:26;;;;;;;9.75;8.88;;;;;;;32.99;56.66;100914.66;4988024;28;65508;-38
2023/12/15 05:42:56;;;;;;;9.68;8.80;;;;;;;32.78;57.10;100867.16;4989237;28;69972;-39
2023/12/15 05:45:26;;;;;;;9.93;8.73;;;;;;;33.08;56.73;100910.59;4985156;28;66540;-39
2023/12/15 05:47:57;;;;;;;9.40;8.57;;;;;;;33.05;56.62;100897.47;4950300;28;70197;-38
2023/12/15 05:50:27;;;;;;;9.65;8.75;;;;;;;33.09;56.72;100894.03;4994634;28;65845;-39
2023/12/15 05:52:57;;;;;;;9.88;7.78;;;;;;;33.12;56.87;100893.56;4965160;28;70053;-39
2023/12/15 05:55:27;;;;;;;8.32;7.68;;;;;;;33.03;56.56;100865.06;4982434;28;66034;-39
2023/12/15 05:57:57;;;;;;;8.43;7.75;;;;;;;33.18;56.37;100886.34;4982041;28;69936;-39
2023/12/15 06:00:27;;;;;;;8.82;8.13;;;;;;;33.01;56.65;100837.31;4992911;28;66338;-39
2023/12/15 06:02:57;;;;;;;8.60;7.90;;;;;;;33.21;56.30;100868.75;4966787;28;69480;-42
2023/12/15 06:05:28;;;;;;;8.38;7.63;;;;;;;33.23;56.32;100861.19;4984459;28;65777;-39
2023/12/15 06:07:58;;;;;;;8.60;7.90;;;;;;;33.13;56.37;100840.03;4984969;28;69803;-38
2023/12/15 06:10:28;;;;;;;8.70;7.97;;;;;;;33.25;56.27;100853.63;4990675;28;65408;-39
2023/12/15 06:12:58;;;;;;;8.68;7.97;;;;;;;33.29;56.10;100855.66;4984741;28;70489;-38
2023/12/15 06:15:28;;;;;;;8.00;7.40;;;;;;;33.31;56.50;100847.22;4964412;28;66086;-38
2023/12/15 06:17:58;;;;;;;8.13;7.43;;;;;;;33.30;55.88;100842.88;4986020;28;69879;-38
2023/12/15 06:20:28;;;;;;;8.07;7.47;;;;;;;33.34;56.21;100835.88;4977890;28;66016;-38
2023/12/15 06:22:59;;;;;;;8.38;7.60;;;;;;;33.35;56.14;100832.13;4985990;28;70421;-38
2023/12/15 06:25:29;;;;;;;8.45;7.82;;;;;;;33.31;56.07;100812.72;4982187;28;66282;-38
2023/12/15 06:27:59;;;;;;;7.60;7.00;;;;;;;33.38;56.05;100821.56;4988885;28;70348;-39
2023/12/15 06:30:29;;;;;;;7.78;7.20;;;;;;;33.41;56.19;100822.19;4981270;28;65387;-39
2023/12/15 06:32:59;;;;;;;7.05;6.45;;;;;;;33.44;55.92;100818.97;4987706;28;70501;-39
2023/12/15 06:35:29;;;;;;;8.05;7.25;;;;;;;33.41;56.13;100811.28;4998488;28;65778;-39
2023/12/15 06:38:00;;;;;;;7.13;6.63;;;;;;;33.50;56.23;100809.84;4987860;28;69758;-38
2023/12/15 06:40:31;;;;;;;7.45;6.95;;;;;;;33.20;55.87;100759.19;4997142;28;66482;-39
2023/12/15 06:43:01;;;;;;;8.00;7.40;;;;;;;33.52;55.92;100805.84;4972158;28;70090;-39
2023/12/15 06:45:31;;;;;;;6.80;6.40;;;;;;;33.56;55.79;100800.75;4996693;28;66193;-39
2023/12/15 06:48:01;;;;;;;7.68;7.18;;;;;;;33.54;55.90;100794.72;4987272;28;69572;-39
2023/12/15 06:50:31;;;;;;;8.05;7.45;;;;;;;33.59;55.75;100800.28;4988659;28;66680;-39
2023/12/15 06:53:01;;;;;;;7.55;6.90;;;;;;;33.57;55.59;100791.53;4991759;28;70104;-38
2023/12/15 06:55:31;;;;;;;7.47;6.97;;;;;;;33.61;55.42;100787.25;4982445;28;66628;-39
2023/12/15 06:58:02;;;;;;;9.40;6.80;;;;;;;33.65;55.34;100788.41;4969457;28;69809;-39
2023/12/15 07:00:32;;;;;;;7.53;7.03;;;;;;;33.63;55.71;100781.56;4984752;28;65384;-39
2023/12/15 07:03:02;;;;;;;7.28;6.68;;;;;;;33.65;55.79;100788.41;4993941;28;69359;-40
2023/12/15 07:05:32;;;;;;;7.30;6.80;;;;;;;33.61;55.30;100773.66;4977698;28;66026;-46
2023/12/15 07:08:03;;;;;;;7.82;7.28;;;;;;;33.72;55.28;100777.41;4969209;28;69696;-38
2023/12/15 07:10:33;;;;;;;7.28;6.38;;;;;;;33.74;55.22;100770.66;4976281;28;66113;-40
2023/12/15 07:13:03;;;;;;;7.68;7.05;;;;;;;33.76;55.31;100767.69;4970278;28;70539;-39
2023/12/15 07:15:33;;;;;;;7.72;7.10;;;;;;;33.78;55.28;100763.66;4961895;28;65648;-38
2023/12/15 07:18:03;;;;;;;6.93;6.32;;;;;;;33.77;55.55;100762.03;4972282;28;70280;-40
2023/12/15 07:20:34;;;;;;;7.28;6.78;;;;;;;33.84;55.05;100758.31;4948148;28;65938;-39
2023/12/15 07:23:04;;;;;;;6.43;5.95;;;;;;;33.85;55.39;100765.41;4960136;28;69423;-39
2023/12/15 07:25:37;;;;;;;6.38;5.97;;;;;;;33.84;54.76;100753.69;4952306;28;66515;-38
2023/12/15 07:28:07;;;;;;;6.80;6.28;;;;;;;33.89;55.08;100750.25;4946218;28;69441;-39
2023/12/15 07:30:37;;;;;;;7.30;5.72;;;;;;;33.84;54.76;100742.00;4976293;28;66407;-39
2023/12/15 07:33:08;;;;;;;6.53;6.13;;;;;;;33.90;55.45;100752.72;4970592;28;69358;-38
2023/12/15 07:35:39;;;;;;;6.68;6.28;;;;;;;33.77;54.85;100715.78;4960674;28;66771;-38
2023/12/15 07:38:10;;;;;;;9.00;7.00;;;;;;;33.93;54.98;100737.81;4960371;28;70041;-40
2023/12/15 07:40:40;;;;;;;6.77;5.93;;;;;;;33.95;54.78;100738.38;4971988;28;67783;-38
2023/12/15 07:43:10;;;;;;;6.95;6.50;;;;;;;33.86;54.62;100724.34;4961979;28;70650;-38
2023/12/15 07:45:40;;;;;;;6.20;5.70;;;;;;;33.90;54.96;100722.78;4960946;28;66621;-39
2023/12/15 07:48:11;;;;;;;6.80;6.07;;;;;;;33.94;54.93;100726.69;4965080;28;70570;-39
2023/12/15 07:50:42;;;;;;;6.32;5.93;;;;;;;34.02;54.86;100733.63;4942260;28;65765;-39
2023/12/15 07:53:12;;;;;;;7.50;6.30;;;;;;;34.07;54.97;100741.06;4961883;28;70582;-39
2023/12/15 07:55:42;;;;;;;6.63;5.93;;;;;;;34.08;54.58;100732.66;4964490;28;66292;-39
2023/12/15 07:58:12;;;;;;;6.40;5.90;;;;;;;34.07;54.33;100730.19;4946275;28;70655;-38
2023/12/15 08:00:42;;;;;;;6.20;5.70;;;;;;;34.10;54.42;100730.53;4947289;28;66383;-39
2023/12/15 08:03:13;;;;;;;6.23;5.83;;;;;;;34.12;54.85;100739.25;4965202;28;70495;-39
2023/12/15 08:05:44;;;;;;;6.50;6.00;;;;;;;34.09;54.93;100725.31;4952842;28;65739;-39
2023/12/15 08:08:14;;;;;;;6.10;5.70;;;;;;;34.16;54.39;100735.00;4943641;28;70613;-39
2023/12/15 08:10:44;;;;;;;5.55;5.25;;;;;;;34.17;54.32;100731.19;4960369;28;66676;-39
2023/12/15 08:13:14;;;;;;;6.60;5.95;;;;;;;34.19;54.60;100728.22;4959070;28;68943;-39
2023/12/15 08:15:46;;;;;;;5.85;5.43;;;;;;;34.22;54.51;100725.00;4969167;28;66606;-39
2023/12/15 08:18:15;;;;;;;;;;;;;;;34.00;54.52;100722.97;4960829;28;70457;-38
2023/12/15 08:20:47;;;;;;;5.90;5.47;;;;;;;34.21;54.74;100728.78;4964707;28;65420;-38
2023/12/15 08:23:17;;;;;;;5.18;4.88;;;;;;;34.24;54.67;100720.13;4962373;28;70676;-38
2023/12/15 08:25:48;;;;;;;6.03;5.55;;;;;;;34.21;54.35;100710.59;4961075;28;66309;-39
2023/12/15 08:28:20;;;;;;;7.38;6.10;;;;;;;34.26;54.27;100712.53;4954601;28;70221;-38
2023/12/15 08:30:50;;;;;;;;;;;;;;;34.09;54.39;100717.16;4962073;28;66943;-39
2023/12/15 08:33:20;;;;;;;5.40;5.00;;;;;;;34.21;54.51;100696.97;4948074;28;70753;-39
2023/12/15 08:35:50;;;;;;;5.43;5.03;;;;;;;34.20;54.38;100683.59;4963918;28;66703;-39
2023/12/15 08:38:20;;;;;;;5.22;4.82;;;;;;;34.36;53.86;100711.91;4958890;28;70273;-39
2023/12/15 08:40:50;;;;;;;5.70;5.30;;;;;;;34.41;54.13;100720.16;4967229;28;66164;-39
2023/12/15 08:43:19;;;;;;;4.93;4.57;;;;;;;34.42;53.83;100717.16;4950602;28;69633;-40
2023/12/15 08:45:50;;;;;;;5.20;4.80;;;;;;;34.46;54.10;100733.81;4966230;28;66416;-40
2023/12/15 08:48:19;;;;;;;5.47;5.07;;;;;;;34.47;53.85;100730.03;4968462;28;70602;-38
2023/12/15 08:50:49;;;;;;;4.88;4.57;;;;;;;34.13;53.68;100680.19;4964325;28;65826;-40
2023/12/15 08:53:20;;;;;;;5.57;5.03;;;;;;;34.50;54.26;100729.53;4973408;28;70581;-39
2023/12/15 08:55:50;;;;;;;4.85;4.55;;;;;;;34.51;53.78;100724.91;4962673;28;65946;-38
2023/12/15 08:58:22;;;;;;;6.07;4.88;;;;;;;34.54;54.15;100735.31;4961464;28;69994;-38
2023/12/15 09:00:51;;;;;;;;;;;;;;;34.37;53.72;100735.31;4967555;28;66712;-39
2023/12/15 09:03:21;;;;;;;5.85;4.28;;;;;;;34.49;53.54;100716.97;4967822;28;70078;-39
2023/12/15 09:05:52;;;;;;;4.70;4.40;;;;;;;34.59;53.91;100728.06;4944565;28;65456;-38
2023/12/15 09:08:42;;;;;;;5.25;4.78;;;;;;;34.64;54.16;100728.16;4961571;28;69922;-38
2023/12/15 09:11:12;;;;;;;4.85;4.40;;;;;;;34.63;53.74;100731.97;4948619;28;66811;-39
2023/12/15 09:13:42;;;;;;;5.97;5.43;;;;;;;34.68;53.66;100731.19;4963416;28;70564;-39
2023/12/15 09:16:12;;;;;;;5.63;5.13;;;;;;;34.58;54.03;100720.97;4963394;28;66731;-38
2023/12/15 09:18:42;;;;;;;4.85;4.55;;;;;;;34.72;53.71;100743.25;4961092;28;70359;-39
2023/12/15 09:21:12;;;;;;;5.55;4.55;;;;;;;34.74;54.10;100740.25;4963190;28;65784;-39
2023/12/15 09:23:42;;;;;;;5.97;4.70;;;;;;;34.31;55.10;100736.31;4964293;28;69805;-37
2023/12/15 09:26:12;;;;;;;5.45;5.03;;;;;;;34.16;55.63;100739.63;4961082;28;66534;-37
2023/12/15 09:28:42;;;;;;;4.47;4.15;;;;;;;34.05;57.02;100744.06;4967926;28;70638;-38
2023/12/15 09:31:14;;;;;;;7.88;4.22;;;;;;;33.95;56.83;100743.84;4977907;28;66816;-38
2023/12/15 09:33:44;;;;;;;12.25;4.95;;;;;;;33.81;57.78;100741.41;4951586;28;69467;-39
2023/12/15 09:36:14;;;;;;;8.60;4.68;;;;;;;33.89;57.06;100744.81;4976144;28;66611;-39
2023/12/15 09:38:47;;;;;;;5.05;4.65;;;;;;;33.84;57.90;100755.59;4965111;28;69578;-38
2023/12/15 09:41:17;;;;;;;4.65;4.22;;;;;;;33.81;58.24;100756.91;4956594;28;66603;-37
2023/12/15 09:43:47;;;;;;;5.03;4.63;;;;;;;34.15;56.48;100760.53;4951430;28;70097;-38
2023/12/15 09:46:18;;;;;;;4.30;3.90;;;;;;;34.30;56.03;100753.69;4957698;28;66417;-37
2023/12/15 09:48:49;;;;;;;5.15;4.40;;;;;;;33.96;55.85;100691.03;4966296;28;70151;-37
2023/12/15 09:51:24;;;;;;;5.30;4.10;;;;;;;34.43;55.93;100762.38;4963004;28;66916;-38
2023/12/15 09:53:55;;;;;;;6.53;4.50;;;;;;;34.48;56.01;100758.91;4959024;28;70526;-38
2023/12/15 09:56:25;;;;;;;4.97;4.30;;;;;;;34.53;56.09;100767.16;4956128;28;66234;-38
2023/12/15 09:58:55;;;;;;;5.50;3.80;;;;;;;34.55;55.77;100775.94;4968443;28;70142;-40
2023/12/15 10:01:26;;;;;;;6.45;4.63;;;;;;;34.59;56.11;100770.84;4974245;28;65984;-38
2023/12/15 10:03:56;;;;;;;11.20;4.35;;;;;;;34.59;56.16;100774.38;4970730;28;70052;-38
2023/12/15 10:06:27;;;;;;;6.45;4.85;;;;;;;34.51;56.09;100763.88;4963569;28;66366;-38
2023/12/15 10:08:59;;;;;;;8.95;4.63;;;;;;;34.62;56.11;100776.59;4962262;28;69200;-38
2023/12/15 10:11:33;;;;;;;8.73;4.90;;;;;;;34.61;56.20;100777.69;4951476;28;65532;-39
2023/12/15 10:14:04;;;;;;;5.60;4.13;;;;;;;34.63;56.24;100772.81;4954325;28;70540;-37
2023/12/15 10:16:37;;;;;;;7.00;4.40;;;;;;;34.51;55.88;100769.31;4955333;28;66382;-37
2023/12/15 10:19:08;;;;;;;5.47;4.00;;;;;;;34.62;56.20;100790.22;4972006;28;70985;-38
2023/12/15 10:21:39;;;;;;;6.30;4.15;;;;;;;34.63;55.91;100782.88;4933310;28;65992;-38
2023/12/15 10:24:22;;;;;;;8.40;4.70;;;;;;;34.27;56.53;100738.72;4973273;28;70969;-37
2023/12/15 10:26:52;;;;;;;9.50;4.35;;;;;;;34.60;56.35;100778.78;4939981;28;65171;-37
2023/12/15 10:29:24;;;;;;;9.75;4.20;;;;;;;34.60;56.16;100795.13;4954176;28;70332;-38
2023/12/15 10:31:54;;;;;;;;;;;;;;;34.39;57.88;100790.38;4934619;28;65297;-38
2023/12/15 10:34:26;;;;;;;9.25;4.40;;;;;;;34.57;56.71;100789.31;4960304;28;70580;-38
2023/12/15 10:36:57;;;;;;;4.63;4.20;;;;;;;34.58;56.65;100794.53;4930350;28;66704;-38
2023/12/15 10:39:28;;;;;;;5.07;4.15;;;;;;;34.55;56.43;100792.28;4962442;28;69102;-38
2023/12/15 10:41:59;;;;;;;5.00;4.13;;;;;;;34.56;56.69;100799.41;4968737;28;66187;-39
2023/12/15 10:44:31;;;;;;;8.30;3.88;;;;;;;34.57;56.41;100801.03;4959444;28;69880;-39
2023/12/15 10:47:04;;;;;;;6.03;4.45;;;;;;;33.95;59.83;100781.94;4968506;28;65229;-38
2023/12/15 10:49:36;;;;;;;8.40;5.00;;;;;;;33.62;61.07;100759.00;4967104;28;70327;-39
2023/12/15 10:52:21;;;;;;;5.68;5.07;;;;;;;33.78;62.06;100809.91;4969670;28;66100;-39
2023/12/15 10:54:52;;;;;;;8.15;5.10;;;;;;;33.73;62.39;100823.41;4970714;28;70531;-38
2023/12/15 10:57:23;;;;;;;9.47;5.10;;;;;;;33.73;61.14;100823.41;4950221;28;66225;-38
2023/12/15 10:59:54;;;;;;;7.97;5.00;;;;;;;33.58;63.37;100809.50;4952132;28;69166;-38
2023/12/15 11:02:28;;;;;;;5.10;4.60;;;;;;;32.98;63.64;100725.53;4968689;28;65390;-38
2023/12/15 11:04:59;;;;;;;8.48;5.40;;;;;;;33.28;62.64;100777.84;4950310;28;70615;-39
2023/12/15 11:07:30;;;;;;;6.50;5.05;;;;;;;33.49;63.64;100828.06;4948841;28;66053;-40
2023/12/15 11:10:03;;;;;;;7.50;5.63;;;;;;;33.55;64.09;100837.19;4964100;28;67960;-37
2023/12/15 11:12:45;;;;;;;7.00;5.50;;;;;;;33.85;60.62;100842.44;4967370;28;66522;-38
2023/12/15 11:15:18;;;;;;;10.95;4.35;;;;;;;33.53;59.97;100776.75;4964633;28;70118;-38
2023/12/15 11:17:50;;;;;;;11.63;4.57;;;;;;;34.03;59.37;100844.13;4949655;28;65266;-39
2023/12/15 11:20:20;;;;;;;6.57;4.88;;;;;;;34.09;59.44;100851.34;4935469;28;70623;-48
2023/12/15 11:23:11;;;;;;;6.88;4.78;;;;;;;33.75;59.83;100802.22;4946230;28;43403;-38
2023/12/15 11:25:50;;;;;;;16.45;5.20;;;;;;;34.10;59.99;100861.19;4972488;28;69920;-38
2023/12/15 11:28:21;;;;;;;7.35;4.97;;;;;;;34.04;59.26;100845.78;4956142;28;66874;-37
2023/12/15 11:30:52;;;;;;;9.85;4.85;;;;;;;33.73;59.26;100796.19;4967685;28;70318;-38
2023/12/15 11:33:29;;;;;;;6.70;5.45;;;;;;;34.15;59.19;100872.16;4967024;28;65340;-37
2023/12/15 11:36:06;;;;;;;7.93;5.68;;;;;;;34.19;59.11;100880.69;4949945;28;69125;-38
2023/12/15 11:38:38;;;;;;;6.35;5.15;;;;;;;34.13;58.96;100873.47;4972139;28;66083;-38
2023/12/15 11:41:09;;;;;;;6.05;5.25;;;;;;;34.16;59.60;100884.72;4961104;28;69504;-37